createdAt,value
2019-01-29T00:01:56.324Z,2.30
2019-01-29T00:04:00.782Z,1.23
2019-01-29T00:06:05.282Z,1.17
2019-01-29T00:08:09.682Z,2.10
2019-01-29T00:10:14.119Z,2.37
2019-01-29T00:12:18.469Z,1.63
2019-01-29T00:14:22.810Z,1.67
2019-01-29T00:16:27.181Z,2.33
2019-01-29T00:18:31.509Z,3.67
2019-01-29T00:20:35.910Z,2.77
2019-01-29T00:22:40.339Z,2.43
2019-01-29T00:24:44.718Z,2.83
2019-01-29T00:26:49.164Z,2.53
2019-01-29T00:28:53.530Z,3.20
2019-01-29T00:30:57.867Z,2.83
2019-01-29T00:33:02.707Z,1.80
2019-01-29T00:35:07.187Z,1.90
2019-01-29T00:37:11.585Z,2.47
2019-01-29T00:39:16.024Z,2.00
2019-01-29T00:41:20.464Z,2.00
2019-01-29T00:43:24.794Z,2.57
2019-01-29T00:45:29.144Z,2.20
2019-01-29T00:47:33.598Z,2.70
2019-01-29T00:49:38.018Z,3.50
2019-01-29T00:51:42.454Z,4.13
2019-01-29T00:53:46.852Z,1.40
2019-01-29T00:55:51.337Z,1.93
2019-01-29T00:57:56.385Z,1.47
2019-01-29T01:00:00.722Z,3.60
2019-01-29T01:02:05.246Z,4.63
2019-01-29T01:04:09.635Z,2.07
2019-01-29T01:06:14.006Z,3.73
2019-01-29T01:08:18.430Z,3.53
2019-01-29T01:10:22.814Z,3.73
2019-01-29T01:12:27.160Z,4.37
2019-01-29T01:14:31.549Z,3.33
2019-01-29T01:16:35.918Z,4.10
2019-01-29T01:18:40.618Z,1.97
2019-01-29T01:20:45.082Z,3.60
2019-01-29T01:22:51.142Z,4.10
2019-01-29T01:24:53.865Z,3.70
2019-01-29T01:26:58.257Z,1.23
2019-01-29T01:29:02.602Z,2.20
2019-01-29T01:31:07.083Z,4.13
2019-01-29T01:33:11.498Z,3.30
2019-01-29T01:35:15.991Z,3.60
2019-01-29T01:37:20.394Z,4.83
2019-01-29T01:39:24.823Z,3.27
2019-01-29T01:41:29.161Z,3.20
2019-01-29T01:43:33.558Z,2.63
2019-01-29T01:45:37.951Z,2.73
2019-01-29T01:47:42.441Z,1.67
2019-01-29T01:49:46.907Z,1.53
2019-01-29T01:51:51.301Z,2.33
2019-01-29T01:53:56.009Z,4.00
2019-01-29T01:56:00.372Z,2.60
2019-01-29T01:58:04.859Z,2.53
2019-01-29T02:00:12.590Z,2.60
2019-01-29T02:02:16.950Z,3.63
2019-01-29T02:04:21.359Z,2.43
2019-01-29T02:06:25.764Z,3.07
2019-01-29T02:08:30.294Z,3.27
2019-01-29T02:10:34.694Z,3.50
2019-01-29T02:12:39.087Z,2.83
2019-01-29T02:14:43.459Z,4.60
2019-01-29T02:16:47.945Z,2.13
2019-01-29T02:18:52.312Z,2.73
2019-01-29T02:20:56.742Z,1.33
2019-01-29T02:23:07.755Z,2.17
2019-01-29T02:25:06.224Z,2.80
2019-01-29T02:27:10.606Z,3.17
2019-01-29T02:29:14.965Z,2.30
2019-01-29T02:31:19.350Z,3.97
2019-01-29T02:33:25.215Z,1.90
2019-01-29T02:35:28.056Z,1.83
2019-01-29T02:37:32.438Z,3.17
2019-01-29T02:39:36.887Z,2.53
2019-01-29T02:41:41.283Z,1.47
2019-01-29T02:43:45.630Z,3.07
2019-01-29T02:45:50.097Z,2.73
2019-01-29T02:47:54.509Z,3.20
2019-01-29T02:49:58.866Z,1.50
2019-01-29T02:52:03.295Z,1.60
2019-01-29T02:54:07.619Z,2.37
2019-01-29T02:56:12.115Z,2.27
2019-01-29T02:58:16.483Z,1.80
2019-01-29T03:00:23.814Z,1.40
2019-01-29T03:02:28.166Z,1.40
2019-01-29T03:04:32.527Z,3.83
2019-01-29T03:06:36.927Z,1.10
2019-01-29T03:08:41.333Z,3.00
2019-01-29T03:10:45.718Z,3.33
2019-01-29T03:12:50.152Z,2.97
2019-01-29T03:14:54.888Z,3.60
2019-01-29T03:16:59.246Z,2.87
2019-01-29T03:19:03.630Z,4.37
2019-01-29T03:21:08.019Z,4.17
2019-01-29T03:23:12.391Z,5.00
2019-01-29T03:25:16.862Z,4.93
2019-01-29T03:27:21.195Z,5.23
2019-01-29T03:29:25.804Z,5.97
2019-01-29T03:31:30.137Z,6.30
2019-01-29T03:33:34.615Z,5.83
2019-01-29T03:35:38.974Z,6.13
2019-01-29T03:37:43.480Z,7.53
2019-01-29T03:39:47.851Z,7.50
2019-01-29T03:41:52.223Z,7.47
2019-01-29T03:43:56.585Z,6.47
2019-01-29T03:46:00.944Z,7.10
2019-01-29T03:48:05.386Z,6.10
2019-01-29T03:50:10.027Z,4.90
2019-01-29T03:52:14.445Z,7.50
2019-01-29T03:54:18.777Z,9.40
2019-01-29T03:56:23.149Z,7.50
2019-01-29T03:58:27.540Z,5.57
2019-01-29T04:00:31.903Z,8.43
2019-01-29T04:02:36.343Z,8.50
2019-01-29T04:04:40.736Z,7.37
2019-01-29T04:06:45.151Z,7.57
2019-01-29T04:08:49.498Z,6.40
2019-01-29T04:10:53.946Z,9.20
2019-01-29T04:12:58.548Z,5.67
2019-01-29T04:15:02.971Z,7.53
2019-01-29T04:17:07.438Z,6.83
2019-01-29T04:19:11.803Z,9.20
2019-01-29T04:21:16.169Z,6.27
2019-01-29T04:23:20.570Z,6.43
2019-01-29T04:25:25.164Z,9.20
2019-01-29T04:27:29.750Z,8.03
2019-01-29T04:29:34.101Z,9.40
2019-01-29T04:31:38.438Z,7.60
2019-01-29T04:33:42.774Z,7.63
2019-01-29T04:35:47.167Z,7.93
2019-01-29T04:37:51.553Z,8.07
2019-01-29T04:39:56.329Z,8.20
2019-01-29T04:42:01.081Z,5.50
2019-01-29T04:44:05.633Z,8.53
2019-01-29T04:46:09.994Z,8.23
2019-01-29T04:48:14.401Z,8.60
2019-01-29T04:50:20.713Z,5.93
2019-01-29T04:52:25.122Z,9.40
2019-01-29T04:54:29.517Z,8.57
2019-01-29T04:56:33.883Z,6.70
2019-01-29T04:58:38.271Z,9.63
2019-01-29T05:00:42.673Z,9.47
2019-01-29T05:02:47.072Z,9.47
2019-01-29T05:04:51.484Z,7.00
2019-01-29T05:06:55.843Z,7.80
2019-01-29T05:09:00.195Z,8.83
2019-01-29T05:11:04.683Z,7.53
2019-01-29T05:13:09.035Z,10.97
2019-01-29T05:15:15.145Z,8.57
2019-01-29T05:17:19.508Z,10.33
2019-01-29T05:19:23.894Z,10.53
2019-01-29T05:21:28.225Z,10.37
2019-01-29T05:23:32.594Z,9.50
2019-01-29T05:25:36.942Z,7.77
2019-01-29T05:27:41.358Z,5.93
2019-01-29T05:29:45.742Z,9.67
2019-01-29T05:31:50.069Z,11.13
2019-01-29T05:33:54.480Z,11.17
2019-01-29T05:35:58.878Z,11.37
2019-01-29T05:38:04.254Z,7.47
2019-01-29T05:40:10.078Z,10.00
2019-01-29T05:42:14.444Z,6.00
2019-01-29T05:44:18.794Z,9.93
2019-01-29T05:46:25.169Z,8.83
2019-01-29T05:48:27.591Z,6.73
2019-01-29T05:50:31.920Z,9.63
2019-01-29T05:52:36.262Z,9.27
2019-01-29T05:54:40.622Z,4.70
2019-01-29T05:56:45.073Z,10.40
2019-01-29T05:58:49.415Z,11.17
2019-01-29T06:00:53.799Z,10.67
2019-01-29T06:02:58.163Z,9.40
2019-01-29T06:05:02.551Z,10.53
2019-01-29T06:07:06.966Z,7.63
2019-01-29T06:09:11.333Z,9.70
2019-01-29T06:11:15.729Z,10.33
2019-01-29T06:13:20.191Z,11.83
2019-01-29T06:15:24.664Z,6.23
2019-01-29T06:17:29.073Z,9.83
2019-01-29T06:19:33.483Z,9.20
2019-01-29T06:21:37.839Z,10.53
2019-01-29T06:23:42.206Z,10.17
2019-01-29T06:25:46.631Z,2.70
2019-01-29T06:27:51.107Z,4.37
2019-01-29T06:29:56.143Z,5.77
2019-01-29T06:32:00.508Z,3.77
2019-01-29T06:34:04.925Z,10.90
2019-01-29T06:36:09.393Z,10.07
2019-01-29T06:38:13.755Z,8.90
2019-01-29T06:40:20.219Z,9.73
2019-01-29T06:42:24.617Z,9.97
2019-01-29T06:44:29.038Z,8.13
2019-01-29T06:46:33.446Z,11.33
2019-01-29T06:48:37.910Z,10.17
2019-01-29T06:50:42.338Z,11.87
2019-01-29T06:52:46.758Z,9.87
2019-01-29T06:54:51.218Z,9.43
2019-01-29T06:56:55.747Z,8.47
2019-01-29T06:59:00.083Z,11.63
2019-01-29T07:01:04.598Z,12.10
2019-01-29T07:03:09.001Z,10.57
2019-01-29T07:05:13.474Z,11.10
2019-01-29T07:07:17.878Z,12.17
2019-01-29T07:09:22.253Z,8.37
2019-01-29T07:11:26.745Z,12.70
2019-01-29T07:13:31.078Z,12.00
2019-01-29T07:15:54.670Z,11.63
2019-01-29T07:17:59.017Z,10.77
2019-01-29T07:20:06.048Z,11.20
2019-01-29T07:22:10.389Z,12.80
2019-01-29T07:24:14.812Z,13.30
2019-01-29T07:26:19.267Z,14.80
2019-01-29T07:28:27.307Z,9.40
2019-01-29T07:30:33.041Z,9.53
2019-01-29T07:32:38.768Z,13.27
2019-01-29T07:34:43.509Z,11.03
2019-01-29T07:36:48.218Z,13.73
2019-01-29T07:38:52.579Z,13.67
2019-01-29T07:40:57.014Z,10.90
2019-01-29T07:43:01.465Z,14.90
2019-01-29T07:45:06.646Z,13.33
2019-01-29T07:47:11.042Z,16.63
2019-01-29T07:49:15.533Z,14.63
2019-01-29T07:51:19.905Z,10.57
2019-01-29T07:53:24.468Z,11.03
2019-01-29T07:55:28.785Z,12.17
2019-01-29T07:57:33.132Z,11.90
2019-01-29T07:59:37.647Z,8.87
2019-01-29T08:01:42.081Z,12.80
2019-01-29T08:03:46.415Z,12.93
2019-01-29T08:05:50.773Z,10.93
2019-01-29T08:07:55.478Z,13.23
2019-01-29T08:09:59.949Z,12.47
2019-01-29T08:12:04.446Z,10.47
2019-01-29T08:14:08.863Z,9.33
2019-01-29T08:16:13.374Z,9.23
2019-01-29T08:18:17.934Z,5.57
2019-01-29T08:20:22.364Z,12.83
2019-01-29T08:22:26.781Z,6.83
2019-01-29T08:24:31.198Z,8.87
2019-01-29T08:26:35.907Z,9.57
2019-01-29T08:28:40.244Z,8.67
2019-01-29T08:30:44.703Z,10.13
2019-01-29T08:32:49.145Z,9.53
2019-01-29T08:34:53.514Z,8.97
2019-01-29T08:36:57.890Z,7.23
2019-01-29T08:39:02.276Z,7.63
2019-01-29T08:41:06.724Z,5.90
2019-01-29T08:43:11.109Z,9.60
2019-01-29T08:45:16.434Z,9.20
2019-01-29T08:47:20.859Z,10.47
2019-01-29T08:49:25.271Z,8.80
2019-01-29T08:51:29.653Z,9.50
2019-01-29T08:53:34.085Z,8.33
2019-01-29T08:55:38.586Z,6.60
2019-01-29T08:57:42.960Z,8.23
2019-01-29T08:59:47.347Z,7.63
2019-01-29T09:04:44.764Z,9.80
2019-01-29T09:06:49.170Z,8.53
2019-01-29T09:08:53.556Z,12.23
2019-01-29T09:10:58.077Z,8.43
2019-01-29T09:13:02.422Z,9.53
2019-01-29T09:15:09.261Z,8.87
2019-01-29T09:17:13.647Z,11.10
2019-01-29T09:19:18.022Z,10.50
2019-01-29T09:21:22.356Z,7.20
2019-01-29T09:23:26.814Z,10.87
2019-01-29T09:25:31.163Z,11.20
2019-01-29T09:27:35.739Z,10.53
2019-01-29T09:29:40.091Z,10.43
2019-01-29T09:31:48.578Z,11.37
2019-01-29T09:33:52.935Z,12.13
2019-01-29T09:35:57.318Z,11.00
2019-01-29T09:38:01.750Z,13.10
2019-01-29T09:40:07.778Z,6.33
2019-01-29T09:42:12.201Z,10.10
2019-01-29T09:44:16.605Z,12.43
2019-01-29T09:46:21.131Z,12.27
2019-01-29T09:48:25.555Z,10.53
2019-01-29T09:50:29.993Z,9.37
2019-01-29T09:52:35.693Z,14.43
2019-01-29T09:54:40.142Z,9.47
2019-01-29T09:56:44.521Z,11.47
2019-01-29T09:58:48.891Z,10.60
2019-01-29T10:00:53.331Z,8.63
2019-01-29T10:02:57.765Z,12.10
2019-01-29T10:05:02.244Z,13.50
2019-01-29T10:07:06.641Z,13.07
2019-01-29T10:09:11.106Z,6.00
2019-01-29T10:11:15.972Z,9.17
2019-01-29T10:13:20.347Z,4.63
2019-01-29T10:15:26.894Z,10.40
2019-01-29T10:17:31.309Z,8.60
2019-01-29T10:19:37.702Z,9.27
2019-01-29T10:21:40.210Z,12.07
2019-01-29T10:23:44.587Z,9.60
2019-01-29T10:25:48.973Z,7.80
2019-01-29T10:27:53.332Z,9.83
2019-01-29T10:29:57.746Z,9.47
2019-01-29T10:32:02.146Z,8.23
2019-01-29T10:34:06.557Z,8.53
2019-01-29T10:36:11.001Z,7.20
2019-01-29T10:38:15.343Z,7.87
2019-01-29T10:40:21.284Z,10.47
2019-01-29T10:42:25.756Z,8.07
2019-01-29T10:44:30.306Z,8.63
2019-01-29T10:46:34.696Z,8.73
2019-01-29T10:48:39.032Z,7.87
2019-01-29T10:50:43.511Z,6.40
2019-01-29T10:52:48.585Z,10.37
2019-01-29T10:54:53.037Z,4.87
2019-01-29T10:56:57.468Z,8.93
2019-01-29T10:59:01.883Z,9.47
2019-01-29T11:01:06.363Z,9.53
2019-01-29T11:03:11.269Z,6.53
2019-01-29T11:05:17.015Z,10.93
2019-01-29T11:07:21.437Z,9.83
2019-01-29T11:09:25.865Z,7.23
2019-01-29T11:11:30.241Z,6.13
2019-01-29T11:13:34.827Z,7.97
2019-01-29T11:15:41.730Z,6.83
2019-01-29T11:17:46.203Z,5.67
2019-01-29T11:19:50.563Z,7.93
2019-01-29T11:21:55.949Z,4.73
2019-01-29T11:23:59.388Z,6.73
2019-01-29T11:26:03.865Z,6.13
2019-01-29T11:28:08.263Z,4.17
2019-01-29T11:30:14.071Z,4.93
2019-01-29T11:32:18.470Z,3.30
2019-01-29T11:34:22.842Z,4.47
2019-01-29T11:36:27.235Z,4.83
2019-01-29T11:38:31.694Z,3.23
2019-01-29T11:40:36.389Z,7.20
2019-01-29T11:42:40.766Z,8.40
2019-01-29T11:44:45.189Z,4.23
2019-01-29T11:46:49.730Z,7.27
2019-01-29T11:48:54.103Z,5.20
2019-01-29T11:50:58.517Z,5.77
2019-01-29T11:53:02.965Z,7.20
2019-01-29T11:55:07.644Z,7.97
2019-01-29T11:57:12.057Z,6.40
2019-01-29T11:59:16.492Z,6.97
2019-01-29T12:01:22.794Z,6.63
2019-01-29T12:03:27.246Z,6.87
2019-01-29T12:05:31.705Z,7.33
2019-01-29T12:07:36.190Z,9.37
2019-01-29T12:09:40.637Z,8.13
2019-01-29T12:11:45.070Z,7.00
2019-01-29T12:13:49.449Z,6.80
2019-01-29T12:15:54.510Z,7.40
2019-01-29T12:17:59.148Z,7.30
2019-01-29T12:20:03.729Z,7.23
2019-01-29T12:22:08.229Z,6.17
2019-01-29T12:24:12.618Z,6.77
2019-01-29T12:26:17.005Z,6.33
2019-01-29T12:28:21.394Z,4.93
2019-01-29T12:30:25.942Z,7.90
2019-01-29T12:32:30.342Z,8.50
2019-01-29T12:34:34.701Z,7.77
2019-01-29T12:36:39.103Z,7.83
2019-01-29T12:38:43.636Z,7.23
2019-01-29T12:40:48.016Z,8.17
2019-01-29T12:42:52.475Z,6.23
2019-01-29T12:44:56.834Z,7.07
2019-01-29T12:47:01.358Z,7.43
2019-01-29T12:49:05.924Z,7.83
2019-01-29T12:51:14.487Z,9.73
2019-01-29T12:53:21.306Z,9.63
2019-01-29T12:55:25.829Z,9.37
2019-01-29T12:57:30.173Z,7.03
2019-01-29T12:59:34.597Z,8.33
2019-01-29T13:01:39.378Z,2.73
2019-01-29T13:03:43.733Z,6.30
2019-01-29T13:05:48.141Z,6.13
2019-01-29T13:07:52.482Z,5.63
2019-01-29T13:09:56.970Z,6.30
2019-01-29T13:12:01.365Z,6.90
2019-01-29T13:14:05.798Z,3.37
2019-01-29T13:16:10.814Z,5.80
2019-01-29T13:18:15.233Z,6.50
2019-01-29T13:20:19.678Z,5.93
2019-01-29T13:22:24.081Z,5.30
2019-01-29T13:24:28.426Z,4.80
2019-01-29T13:26:32.773Z,5.73
2019-01-29T13:28:37.098Z,4.00
2019-01-29T13:30:41.642Z,3.20
2019-01-29T13:32:46.069Z,3.37
2019-01-29T13:34:50.467Z,4.73
2019-01-29T13:36:54.841Z,5.47
2019-01-29T13:38:59.188Z,4.53
2019-01-29T13:41:03.746Z,3.40
2019-01-29T13:43:08.298Z,3.30
2019-01-29T13:45:13.517Z,4.77
2019-01-29T13:47:17.962Z,3.33
2019-01-29T13:49:22.296Z,4.00
2019-01-29T13:51:26.705Z,4.17
2019-01-29T13:53:31.139Z,4.60
2019-01-29T13:55:35.586Z,5.73
2019-01-29T13:57:39.966Z,4.47
2019-01-29T13:59:44.533Z,3.77
2019-01-29T14:01:48.899Z,5.03
2019-01-29T14:03:53.258Z,3.90
2019-01-29T14:05:57.679Z,2.90
2019-01-29T14:08:02.185Z,3.37
2019-01-29T14:10:06.954Z,3.27
2019-01-29T14:12:11.385Z,4.20
2019-01-29T14:14:15.712Z,5.17
2019-01-29T14:16:20.214Z,3.40
2019-01-29T14:18:27.771Z,4.90
2019-01-29T14:20:32.228Z,4.43
2019-01-29T14:22:36.597Z,3.17
2019-01-29T14:24:41.038Z,4.53
2019-01-29T14:26:47.965Z,2.90
2019-01-29T14:28:50.022Z,4.57
2019-01-29T14:30:54.484Z,4.47
2019-01-29T14:32:58.910Z,4.90
2019-01-29T14:35:03.350Z,4.73
2019-01-29T14:37:07.742Z,4.10
2019-01-29T14:39:17.183Z,3.50
2019-01-29T14:41:22.421Z,3.93
2019-01-29T14:43:27.767Z,3.87
2019-01-29T14:45:32.155Z,3.60
2019-01-29T14:47:36.479Z,3.20
2019-01-29T14:49:40.876Z,2.20
2019-01-29T14:51:45.258Z,3.63
2019-01-29T14:53:49.615Z,3.60
2019-01-29T14:55:54.054Z,4.57
2019-01-29T14:57:58.386Z,3.90
2019-01-29T15:00:02.798Z,2.10
2019-01-29T15:02:07.197Z,2.83
2019-01-29T15:04:11.563Z,3.23
2019-01-29T15:06:15.999Z,3.97
2019-01-29T15:08:20.376Z,3.77
2019-01-29T15:10:24.814Z,2.60
2019-01-29T15:12:29.273Z,4.13
2019-01-29T15:14:33.632Z,3.87
2019-01-29T15:17:10.030Z,3.63
2019-01-29T15:19:17.393Z,3.07
2019-01-29T15:21:21.873Z,3.40
2019-01-29T15:23:26.275Z,3.57
2019-01-29T15:25:30.788Z,3.07
2019-01-29T15:27:35.151Z,2.73
2019-01-29T15:29:39.502Z,3.03
2019-01-29T15:31:44.058Z,2.77
2019-01-29T15:33:48.404Z,3.50
2019-01-29T15:35:52.816Z,3.63
2019-01-29T15:37:57.229Z,2.83
2019-01-29T15:40:01.600Z,3.67
2019-01-29T15:42:06.034Z,2.77
2019-01-29T15:44:10.493Z,2.83
2019-01-29T15:46:14.863Z,3.53
2019-01-29T15:48:19.207Z,3.90
2019-01-29T15:50:23.645Z,4.17
2019-01-29T15:52:28.063Z,3.60
2019-01-29T15:54:32.523Z,2.97
2019-01-29T15:56:36.955Z,3.77
2019-01-29T15:58:41.403Z,3.43
2019-01-29T16:00:45.814Z,4.07
2019-01-29T16:02:50.274Z,4.47
2019-01-29T16:04:54.670Z,4.33
2019-01-29T16:06:59.062Z,4.27
2019-01-29T16:09:04.326Z,4.47
2019-01-29T16:11:08.684Z,3.73
2019-01-29T16:13:13.146Z,4.50
2019-01-29T16:15:18.662Z,5.00
2019-01-29T16:17:23.061Z,4.37
2019-01-29T16:19:27.601Z,4.30
2019-01-29T16:21:32.033Z,5.03
2019-01-29T16:23:36.378Z,4.80
2019-01-29T16:25:40.916Z,4.57
2019-01-29T16:27:45.302Z,3.90
2019-01-29T16:29:49.665Z,4.00
2019-01-29T16:31:54.093Z,2.97
2019-01-29T16:33:58.578Z,3.50
2019-01-29T16:36:02.907Z,3.60
2019-01-29T16:38:07.365Z,3.27
2019-01-29T16:40:12.791Z,3.70
2019-01-29T16:42:17.198Z,3.70
2019-01-29T16:44:21.568Z,3.27
2019-01-29T16:46:26.026Z,3.40
2019-01-29T16:48:30.416Z,4.50
2019-01-29T16:50:34.836Z,4.27
2019-01-29T16:52:39.443Z,4.03
2019-01-29T16:54:43.923Z,3.17
2019-01-29T16:56:48.370Z,4.17
2019-01-29T16:58:52.847Z,3.53
2019-01-29T17:00:57.276Z,3.00
2019-01-29T17:03:01.777Z,3.53
2019-01-29T17:05:07.381Z,2.87
2019-01-29T17:07:11.759Z,3.50
2019-01-29T17:09:16.186Z,3.23
2019-01-29T17:11:20.617Z,3.83
2019-01-29T17:13:25.056Z,4.00
2019-01-29T17:15:30.068Z,3.47
2019-01-29T17:17:34.387Z,3.47
2019-01-29T17:19:38.770Z,3.30
2019-01-29T17:21:43.183Z,4.40
2019-01-29T17:23:47.566Z,3.50
2019-01-29T17:25:51.982Z,3.30
2019-01-29T17:27:56.454Z,3.40
2019-01-29T17:30:00.946Z,3.77
2019-01-29T17:32:05.402Z,4.10
2019-01-29T17:34:09.832Z,4.13
2019-01-29T17:36:14.287Z,4.43
2019-01-29T17:38:18.702Z,4.20
2019-01-29T17:40:26.211Z,3.70
2019-01-29T17:42:30.672Z,4.63
2019-01-29T17:44:35.166Z,4.13
2019-01-29T17:46:39.543Z,3.77
2019-01-29T17:48:43.987Z,4.93
2019-01-29T17:50:48.516Z,4.30
2019-01-29T17:52:53.027Z,4.27
2019-01-29T17:54:57.458Z,4.10
2019-01-29T17:57:01.931Z,3.97
2019-01-29T17:59:06.345Z,3.77
2019-01-29T18:01:10.885Z,3.60
2019-01-29T18:03:15.307Z,3.67
2019-01-29T18:05:19.810Z,4.13
2019-01-29T18:07:24.278Z,4.63
2019-01-29T18:09:28.705Z,4.40
2019-01-29T18:11:33.193Z,3.87
2019-01-29T18:13:37.681Z,3.63
2019-01-29T18:15:42.234Z,3.90
2019-01-29T18:17:48.247Z,4.03
2019-01-29T18:19:51.207Z,3.43
2019-01-29T18:21:57.089Z,3.50
2019-01-29T18:24:00.533Z,3.57
2019-01-29T18:26:04.954Z,3.87
2019-01-29T18:28:09.619Z,4.07
2019-01-29T18:30:17.572Z,3.57
2019-01-29T18:32:21.974Z,5.07
2019-01-29T18:34:26.430Z,4.20
2019-01-29T18:36:30.963Z,3.80
2019-01-29T18:38:35.373Z,4.03
2019-01-29T18:40:44.036Z,4.77
2019-01-29T18:42:48.476Z,4.00
2019-01-29T18:44:52.871Z,4.40
2019-01-29T18:46:57.397Z,3.70
2019-01-29T18:49:02.116Z,4.37
2019-01-29T18:51:06.581Z,5.03
2019-01-29T18:53:11.160Z,3.93
2019-01-29T18:55:15.640Z,4.33
2019-01-29T18:57:20.729Z,3.50
2019-01-29T18:59:25.185Z,4.40
2019-01-29T19:01:29.600Z,4.77
2019-01-29T19:03:34.011Z,4.00
2019-01-29T19:05:38.458Z,4.10
2019-01-29T19:07:44.815Z,3.90
2019-01-29T19:09:47.462Z,4.73
2019-01-29T19:11:51.870Z,5.10
2019-01-29T19:13:56.272Z,4.17
2019-01-29T19:16:00.713Z,4.17
2019-01-29T19:18:05.282Z,4.57
2019-01-29T19:20:10.721Z,4.60
2019-01-29T19:22:15.152Z,4.40
2019-01-29T19:24:19.575Z,4.37
2019-01-29T19:26:24.014Z,4.23
2019-01-29T19:28:28.451Z,3.70
2019-01-29T19:30:33.359Z,3.50
2019-01-29T19:32:37.847Z,4.00
2019-01-29T19:34:42.321Z,5.83
2019-01-29T19:36:46.769Z,3.83
2019-01-29T19:38:52.258Z,5.83
2019-01-29T19:40:56.671Z,3.90
2019-01-29T19:43:01.284Z,5.33
2019-01-29T19:45:09.103Z,3.97
2019-01-29T19:47:13.477Z,4.40
2019-01-29T19:49:17.901Z,4.77
2019-01-29T19:51:22.346Z,3.87
2019-01-29T19:53:26.762Z,4.03
2019-01-29T19:55:31.386Z,4.30
2019-01-29T19:57:35.800Z,5.00
2019-01-29T19:59:40.216Z,5.83
2019-01-29T20:01:44.703Z,5.83
2019-01-29T20:03:49.200Z,7.27
2019-01-29T20:05:53.709Z,5.90
2019-01-29T20:07:58.214Z,5.17
2019-01-29T20:10:02.706Z,4.00
2019-01-29T20:12:09.612Z,4.40
2019-01-29T20:14:11.685Z,5.13
2019-01-29T20:16:16.253Z,3.93
2019-01-29T20:18:21.765Z,4.47
2019-01-29T20:20:29.622Z,4.70
2019-01-29T20:22:34.228Z,5.00
2019-01-29T20:24:38.677Z,4.43
2019-01-29T20:26:43.181Z,4.33
2019-01-29T20:28:49.484Z,4.40
2019-01-29T20:30:52.094Z,5.43
2019-01-29T20:32:56.548Z,5.30
2019-01-29T20:35:00.984Z,4.97
2019-01-29T20:37:05.510Z,5.47
2019-01-29T20:39:34.688Z,3.90
2019-01-29T20:41:33.193Z,5.40
2019-01-29T20:43:37.606Z,5.33
2019-01-29T20:45:42.115Z,6.30
2019-01-29T20:47:46.527Z,5.90
2019-01-29T20:49:50.954Z,5.80
2019-01-29T20:51:55.421Z,5.67
2019-01-29T20:53:59.903Z,5.83
2019-01-29T20:56:04.459Z,6.43
2019-01-29T20:58:09.053Z,6.87
2019-01-29T21:00:17.490Z,6.07
2019-01-29T21:02:21.955Z,6.97
2019-01-29T21:04:26.541Z,4.83
2019-01-29T21:06:30.980Z,5.90
2019-01-29T21:08:35.405Z,5.50
2019-01-29T21:10:39.889Z,5.17
2019-01-29T21:12:44.546Z,5.07
2019-01-29T21:14:48.956Z,4.93
2019-01-29T21:16:53.331Z,4.80
2019-01-29T21:18:57.874Z,4.97
2019-01-29T21:21:02.342Z,4.80
2019-01-29T21:23:06.881Z,4.67
2019-01-29T21:25:14.239Z,4.40
2019-01-29T21:27:19.068Z,4.40
2019-01-29T21:29:23.511Z,4.60
2019-01-29T21:31:29.002Z,3.70
2019-01-29T21:33:33.493Z,3.87
2019-01-29T21:35:37.909Z,4.13
2019-01-29T21:37:42.554Z,4.10
2019-01-29T21:39:46.949Z,3.87
2019-01-29T21:41:51.418Z,3.80
2019-01-29T21:43:55.923Z,4.47
2019-01-29T21:46:00.380Z,2.97
2019-01-29T21:48:05.178Z,3.50
2019-01-29T21:50:16.259Z,4.20
2019-01-29T21:52:20.703Z,4.67
2019-01-29T21:54:25.075Z,5.20
2019-01-29T21:56:30.171Z,3.57
2019-01-29T21:58:34.596Z,4.17
2019-01-29T22:00:42.645Z,4.07
2019-01-29T22:02:47.085Z,4.03
2019-01-29T22:04:52.309Z,4.70
2019-01-29T22:06:56.706Z,3.60
2019-01-29T22:09:01.183Z,4.03
2019-01-29T22:11:05.666Z,4.37
2019-01-29T22:13:11.194Z,4.93
2019-01-29T22:15:15.713Z,4.57
2019-01-29T22:17:20.089Z,3.93
2019-01-29T22:19:24.469Z,3.93
2019-01-29T22:21:29.566Z,3.43
2019-01-29T22:23:33.982Z,2.93
2019-01-29T22:25:38.362Z,3.40
2019-01-29T22:27:42.784Z,4.83
2019-01-29T22:29:47.135Z,3.93
2019-01-29T22:31:51.531Z,3.77
2019-01-29T22:33:55.945Z,3.97
2019-01-29T22:36:00.298Z,4.50
2019-01-29T22:38:04.911Z,4.63
2019-01-29T22:40:13.005Z,5.17
2019-01-29T22:42:17.610Z,4.97
2019-01-29T22:44:22.031Z,7.67
2019-01-29T22:46:26.381Z,7.77
2019-01-29T22:48:30.728Z,7.37
2019-01-29T22:50:37.120Z,7.27
2019-01-29T22:52:41.413Z,4.20
2019-01-29T22:54:45.770Z,3.90
2019-01-29T22:56:50.203Z,4.53
2019-01-29T22:58:54.584Z,4.00
2019-01-29T23:01:36.106Z,3.93
2019-01-29T23:03:45.114Z,4.23
2019-01-29T23:06:01.322Z,4.90
2019-01-29T23:08:05.682Z,4.37
2019-01-29T23:10:14.327Z,4.57
2019-01-29T23:12:18.884Z,3.93
2019-01-29T23:14:23.202Z,4.37
2019-01-29T23:16:27.576Z,4.43
2019-01-29T23:18:31.994Z,4.10
2019-01-29T23:20:36.483Z,4.67
2019-01-29T23:22:40.879Z,4.13
2019-01-29T23:24:45.249Z,3.63
2019-01-29T23:26:49.635Z,3.97
2019-01-29T23:28:54.020Z,4.57
2019-01-29T23:30:58.474Z,4.57
2019-01-29T23:33:02.827Z,4.53
2019-01-29T23:35:07.627Z,3.93
2019-01-29T23:37:12.857Z,4.80
2019-01-29T23:39:17.306Z,3.67
2019-01-29T23:41:21.720Z,4.60
2019-01-29T23:43:26.097Z,5.77
2019-01-29T23:45:30.457Z,4.83
2019-01-29T23:47:34.898Z,4.60
2019-01-29T23:49:39.362Z,3.80
2019-01-29T23:51:43.733Z,5.23
2019-01-29T23:53:48.082Z,5.27
2019-01-29T23:55:57.657Z,4.43
2019-01-29T23:58:07.019Z,5.27
